createdAt,value
2022-10-13T00:00:18.854Z,13.37
2022-10-13T00:02:50.596Z,14.77
2022-10-13T00:05:22.294Z,14.70
2022-10-13T00:07:54.209Z,14.40
2022-10-13T00:10:26.409Z,13.30
2022-10-13T00:12:58.110Z,13.07
2022-10-13T00:15:29.827Z,14.13
2022-10-13T00:18:01.556Z,14.80
2022-10-13T00:20:33.799Z,14.10
2022-10-13T00:23:05.541Z,14.33
2022-10-13T00:25:42.104Z,12.53
2022-10-13T00:28:15.783Z,12.70
2022-10-13T00:30:47.695Z,15.10
2022-10-13T00:33:19.371Z,13.73
2022-10-13T00:35:51.282Z,13.47
2022-10-13T00:38:24.267Z,14.57
2022-10-13T00:40:56.574Z,13.43
2022-10-13T00:43:57.066Z,12.50
2022-10-13T00:46:34.301Z,12.80
2022-10-13T00:49:14.441Z,13.53
2022-10-13T00:51:51.261Z,11.37
2022-10-13T00:54:25.391Z,13.30
2022-10-13T00:56:57.500Z,13.50
2022-10-13T00:59:29.516Z,14.70
2022-10-13T01:02:03.127Z,13.93
2022-10-13T01:04:39.847Z,13.97
2022-10-13T01:07:13.257Z,12.80
2022-10-13T01:09:45.225Z,13.90
2022-10-13T01:12:25.856Z,13.30
2022-10-13T01:15:42.889Z,13.60
2022-10-13T01:18:32.727Z,11.63
2022-10-13T01:21:35.265Z,12.17
2022-10-13T01:24:13.025Z,13.60
2022-10-13T01:27:05.175Z,13.53
2022-10-13T01:30:03.797Z,12.77
2022-10-13T01:32:48.209Z,11.97
2022-10-13T01:35:39.759Z,12.60
2022-10-13T01:38:59.562Z,12.43
2022-10-13T01:41:38.578Z,14.30
2022-10-13T01:44:20.934Z,12.77
2022-10-13T01:46:59.020Z,13.20
2022-10-13T01:49:34.673Z,13.13
2022-10-13T01:52:13.874Z,13.10
2022-10-13T01:54:52.772Z,12.00
2022-10-13T01:57:35.780Z,11.73
2022-10-13T02:00:11.902Z,12.83
2022-10-13T02:03:01.504Z,12.50
2022-10-13T02:05:36.645Z,12.97
2022-10-13T02:08:17.174Z,12.70
2022-10-13T02:11:16.211Z,13.03
2022-10-13T02:14:13.552Z,13.40
2022-10-13T02:16:47.055Z,12.97
2022-10-13T02:19:19.256Z,12.60
2022-10-13T02:21:53.226Z,13.93
2022-10-13T02:24:25.365Z,13.67
2022-10-13T02:26:57.713Z,12.83
2022-10-13T02:29:29.413Z,12.57
2022-10-13T02:32:01.137Z,12.97
2022-10-13T02:34:32.921Z,12.33
2022-10-13T02:37:04.613Z,12.13
2022-10-13T02:39:36.302Z,12.53
2022-10-13T02:42:08.195Z,13.27
2022-10-13T02:44:40.161Z,13.07
2022-10-13T02:47:11.853Z,13.53
2022-10-13T02:49:43.565Z,11.93
2022-10-13T02:52:15.341Z,11.70
2022-10-13T02:54:47.089Z,12.60
2022-10-13T02:57:19.073Z,12.60
2022-10-13T02:59:52.807Z,12.80
2022-10-13T03:02:27.348Z,12.07
2022-10-13T03:04:59.165Z,13.17
2022-10-13T03:07:30.849Z,12.07
2022-10-13T03:10:02.877Z,12.43
2022-10-13T03:12:34.666Z,12.87
2022-10-13T03:15:06.927Z,12.67
2022-10-13T03:17:38.621Z,13.60
2022-10-13T03:20:10.546Z,12.00
2022-10-13T03:22:44.902Z,11.67
2022-10-13T03:25:20.549Z,13.37
2022-10-13T03:27:52.240Z,11.53
2022-10-13T03:30:23.946Z,12.00
2022-10-13T03:32:55.637Z,12.60
2022-10-13T03:35:27.416Z,13.07
2022-10-13T03:37:59.119Z,11.70
2022-10-13T03:40:32.458Z,12.50
2022-10-13T03:43:04.159Z,12.20
2022-10-13T03:45:35.883Z,11.60
2022-10-13T03:48:07.766Z,11.03
2022-10-13T03:50:39.460Z,13.00
2022-10-13T03:53:11.605Z,13.40
2022-10-13T03:55:53.024Z,14.20
2022-10-13T03:58:26.012Z,12.67
2022-10-13T04:01:04.701Z,12.10
2022-10-13T04:03:36.604Z,12.57
2022-10-13T04:06:09.675Z,11.47
2022-10-13T04:08:41.382Z,13.10
2022-10-13T04:11:15.248Z,13.47
2022-10-13T04:13:48.432Z,11.23
2022-10-13T04:16:26.187Z,15.20
2022-10-13T04:19:04.010Z,15.60
2022-10-13T04:21:35.825Z,14.43
2022-10-13T04:24:08.306Z,15.47
2022-10-13T04:26:40.760Z,17.47
2022-10-13T04:29:13.419Z,20.57
2022-10-13T04:31:45.240Z,18.40
2022-10-13T04:34:16.932Z,18.93
2022-10-13T04:36:51.142Z,20.70
2022-10-13T04:39:22.879Z,19.43
2022-10-13T04:41:55.011Z,19.53
2022-10-13T04:44:26.795Z,19.73
2022-10-13T04:46:58.599Z,20.77
2022-10-13T04:49:30.321Z,19.83
2022-10-13T04:52:02.054Z,19.00
2022-10-13T04:54:33.766Z,19.53
2022-10-13T04:57:05.467Z,19.50
2022-10-13T04:59:37.571Z,19.97
2022-10-13T05:02:10.453Z,19.83
2022-10-13T05:04:42.158Z,19.83
2022-10-13T05:07:17.829Z,20.57
2022-10-13T05:09:51.853Z,19.90
2022-10-13T05:12:23.706Z,19.80
2022-10-13T05:14:59.771Z,19.10
2022-10-13T05:17:34.992Z,20.37
2022-10-13T05:20:11.298Z,20.33
2022-10-13T05:22:43.098Z,20.03
2022-10-13T05:25:14.885Z,19.17
2022-10-13T05:27:46.570Z,20.20
2022-10-13T05:30:18.279Z,20.70
2022-10-13T05:32:53.745Z,18.40
2022-10-13T05:35:27.434Z,18.77
2022-10-13T05:37:59.194Z,18.67
2022-10-13T05:40:30.951Z,18.97
2022-10-13T05:43:05.047Z,19.13
2022-10-13T05:45:36.887Z,18.70
2022-10-13T05:48:08.582Z,18.13
2022-10-13T05:50:41.254Z,17.53
2022-10-13T05:53:12.994Z,17.77
2022-10-13T05:55:44.991Z,17.13
2022-10-13T05:58:18.452Z,17.60
2022-10-13T06:00:50.729Z,17.83
2022-10-13T06:03:23.645Z,17.70
2022-10-13T06:05:55.925Z,18.10
2022-10-13T06:08:29.281Z,17.77
2022-10-13T06:11:02.134Z,18.23
2022-10-13T06:13:33.910Z,17.27
2022-10-13T06:16:05.837Z,17.20
2022-10-13T06:18:37.724Z,17.10
2022-10-13T06:21:09.548Z,17.13
2022-10-13T06:23:41.279Z,17.33
2022-10-13T06:26:13.037Z,17.03
2022-10-13T06:28:49.727Z,17.03
2022-10-13T06:31:22.456Z,17.17
2022-10-13T06:33:54.321Z,16.67
2022-10-13T06:36:26.082Z,16.77
2022-10-13T06:38:57.808Z,17.13
2022-10-13T06:41:29.501Z,17.07
2022-10-13T06:44:01.564Z,16.27
2022-10-13T06:46:34.463Z,17.00
2022-10-13T06:49:06.355Z,17.67
2022-10-13T06:51:38.114Z,17.07
2022-10-13T06:54:09.872Z,16.50
2022-10-13T06:56:41.699Z,16.50
2022-10-13T06:59:15.178Z,16.17
2022-10-13T07:01:51.774Z,16.87
2022-10-13T07:04:27.922Z,16.03
2022-10-13T07:07:02.830Z,16.87
2022-10-13T07:09:34.523Z,15.77
2022-10-13T07:12:07.875Z,16.57
2022-10-13T07:14:43.006Z,15.87
2022-10-13T07:17:15.639Z,16.57
2022-10-13T07:19:48.621Z,16.40
2022-10-13T07:22:20.335Z,15.17
2022-10-13T07:24:52.021Z,16.50
2022-10-13T07:27:25.024Z,16.20
2022-10-13T07:29:57.078Z,15.83
2022-10-13T07:32:28.773Z,16.20
2022-10-13T07:35:00.755Z,16.53
2022-10-13T07:37:32.473Z,17.70
2022-10-13T07:40:06.026Z,17.83
2022-10-13T07:42:37.721Z,17.50
2022-10-13T07:45:09.918Z,16.83
2022-10-13T07:47:41.740Z,18.47
2022-10-13T07:50:13.454Z,17.20
2022-10-13T07:52:45.947Z,16.87
2022-10-13T07:55:17.742Z,17.57
2022-10-13T07:57:49.457Z,17.63
2022-10-13T08:00:21.243Z,17.33
2022-10-13T08:02:52.930Z,17.97
2022-10-13T08:05:24.925Z,17.13
2022-10-13T08:07:58.486Z,16.83
2022-10-13T08:10:30.651Z,16.53
2022-10-13T08:13:02.348Z,16.90
2022-10-13T08:15:34.049Z,16.37
2022-10-13T08:18:05.795Z,18.50
2022-10-13T08:20:45.071Z,17.97
2022-10-13T08:23:16.775Z,17.27
2022-10-13T08:25:55.561Z,17.30
2022-10-13T08:28:28.707Z,17.13
2022-10-13T08:31:00.596Z,17.87
2022-10-13T08:33:32.345Z,18.37
2022-10-13T08:36:04.544Z,16.80
2022-10-13T08:38:36.259Z,18.67
2022-10-13T08:41:45.322Z,18.03
2022-10-13T08:47:51.993Z,17.67
2022-10-13T08:50:27.853Z,18.47
2022-10-13T08:53:04.965Z,18.27
2022-10-13T08:55:52.602Z,18.37
2022-10-13T08:58:32.621Z,19.83
2022-10-13T09:01:29.844Z,18.97
2022-10-13T09:04:33.236Z,19.13
2022-10-13T09:07:24.255Z,18.77
2022-10-13T09:09:56.508Z,19.07
2022-10-13T09:12:29.421Z,18.83
2022-10-13T09:15:09.652Z,19.47
2022-10-13T09:17:41.782Z,20.07
2022-10-13T09:20:27.554Z,19.60
2022-10-13T09:23:07.900Z,18.83
2022-10-13T09:25:48.513Z,20.67
2022-10-13T09:28:24.389Z,20.40
2022-10-13T09:31:14.809Z,20.57
2022-10-13T09:33:48.544Z,19.40
2022-10-13T09:36:20.413Z,19.50
2022-10-13T09:39:14.162Z,18.20
2022-10-13T09:41:45.941Z,18.83
2022-10-13T09:44:28.059Z,18.67
2022-10-13T09:47:02.128Z,19.30
2022-10-13T09:49:36.416Z,19.10
2022-10-13T09:52:12.975Z,18.43
2022-10-13T09:54:51.161Z,18.07
2022-10-13T09:57:32.251Z,19.00
2022-10-13T10:00:19.199Z,18.53
2022-10-13T10:03:12.804Z,18.63
2022-10-13T10:05:50.773Z,17.47
2022-10-13T10:09:03.243Z,17.70
2022-10-13T10:11:43.241Z,17.20
2022-10-13T10:14:38.501Z,18.70
2022-10-13T10:17:30.285Z,18.37
2022-10-13T10:20:29.565Z,17.27
2022-10-13T10:23:11.134Z,17.03
2022-10-13T10:25:48.030Z,16.60
2022-10-13T10:28:25.508Z,16.93
2022-10-13T10:31:18.055Z,17.73
2022-10-13T10:34:35.130Z,16.93
2022-10-13T10:37:35.551Z,17.47
2022-10-13T10:40:32.315Z,16.70
2022-10-13T10:43:20.549Z,16.47
2022-10-13T10:45:56.823Z,17.73
2022-10-13T10:48:39.302Z,16.93
2022-10-13T10:51:12.244Z,15.53
2022-10-13T10:54:00.834Z,16.60
2022-10-13T10:56:35.815Z,15.87
2022-10-13T10:59:08.260Z,16.13
2022-10-13T11:02:08.685Z,15.83
2022-10-13T11:04:46.347Z,16.63
2022-10-13T11:07:23.947Z,16.53
2022-10-13T11:09:57.195Z,17.63
2022-10-13T11:13:08.212Z,17.37
2022-10-13T11:15:45.150Z,16.83
2022-10-13T11:19:11.351Z,16.43
2022-10-13T11:21:55.217Z,17.70
2022-10-13T11:24:41.848Z,17.10
2022-10-13T11:27:15.943Z,16.30
2022-10-13T11:29:48.913Z,17.10
2022-10-13T11:32:27.004Z,17.37
2022-10-13T11:35:10.322Z,15.87
2022-10-13T11:38:05.956Z,16.03
2022-10-13T11:40:41.018Z,16.57
2022-10-13T11:43:26.270Z,15.77
2022-10-13T11:46:19.508Z,16.47
2022-10-13T11:49:06.333Z,16.03
2022-10-13T11:51:40.836Z,17.83
2022-10-13T11:54:27.858Z,16.47
2022-10-13T11:56:59.697Z,16.77
2022-10-13T11:59:39.293Z,16.17
2022-10-13T12:02:10.963Z,15.83
2022-10-13T12:04:46.642Z,15.60
2022-10-13T12:07:22.152Z,15.90
2022-10-13T12:09:57.029Z,15.90
2022-10-13T12:12:29.281Z,15.87
2022-10-13T12:15:04.371Z,16.30
2022-10-13T12:17:38.958Z,15.40
2022-10-13T12:20:22.442Z,15.43
2022-10-13T12:22:55.477Z,14.63
2022-10-13T12:25:30.141Z,16.10
2022-10-13T12:28:04.669Z,13.83
2022-10-13T12:30:37.022Z,14.50
2022-10-13T12:33:26.111Z,14.60
2022-10-13T12:36:12.917Z,14.20
2022-10-13T12:38:50.500Z,14.47
2022-10-13T12:41:28.979Z,14.83
2022-10-13T12:44:03.998Z,13.27
2022-10-13T12:46:59.497Z,13.10
2022-10-13T12:49:34.258Z,13.37
2022-10-13T12:52:22.643Z,13.93
2022-10-13T12:54:57.753Z,13.57
2022-10-13T12:57:38.384Z,15.87
2022-10-13T13:00:19.229Z,13.53
2022-10-13T13:03:05.773Z,14.10
2022-10-13T13:05:49.251Z,12.33
2022-10-13T13:08:27.114Z,13.13
2022-10-13T13:11:07.673Z,14.40
2022-10-13T13:13:39.431Z,12.90
2022-10-13T13:16:18.766Z,12.97
2022-10-13T13:18:51.656Z,11.17
2022-10-13T13:21:24.084Z,10.50
2022-10-13T13:23:55.799Z,10.97
2022-10-13T13:26:28.074Z,10.60
2022-10-13T13:28:59.778Z,15.37
2022-10-13T13:31:31.493Z,11.57
2022-10-13T13:34:03.205Z,10.47
2022-10-13T13:36:34.919Z,10.80
2022-10-13T13:39:14.107Z,9.83
2022-10-13T13:41:47.619Z,10.33
2022-10-13T13:44:19.392Z,9.77
2022-10-13T13:46:53.238Z,10.57
2022-10-13T13:49:24.964Z,10.70
2022-10-13T13:51:56.683Z,10.77
2022-10-13T13:54:28.414Z,9.17
2022-10-13T13:57:01.177Z,10.07
2022-10-13T13:59:33.113Z,9.80
2022-10-13T14:02:05.314Z,9.93
2022-10-13T14:04:38.438Z,9.37
2022-10-13T14:07:10.625Z,9.40
2022-10-13T14:09:42.351Z,8.60
2022-10-13T14:12:14.793Z,9.13
2022-10-13T14:14:46.543Z,9.43
2022-10-13T14:17:19.067Z,9.17
2022-10-13T14:19:50.798Z,8.13
2022-10-13T14:22:23.154Z,7.73
2022-10-13T14:24:55.169Z,7.50
2022-10-13T14:27:26.977Z,7.80
2022-10-13T14:29:58.731Z,8.40
2022-10-13T14:32:30.520Z,8.50
2022-10-13T14:35:02.277Z,8.23
2022-10-13T14:37:34.497Z,7.57
2022-10-13T14:40:06.765Z,8.57
2022-10-13T14:42:39.533Z,7.73
2022-10-13T14:45:13.229Z,7.33
2022-10-13T14:47:45.096Z,8.03
2022-10-13T14:50:16.884Z,7.40
2022-10-13T14:52:48.704Z,7.23
2022-10-13T14:55:20.415Z,8.23
2022-10-13T14:57:52.277Z,7.50
2022-10-13T15:00:24.317Z,7.53
2022-10-13T15:02:56.007Z,7.27
2022-10-13T15:05:31.029Z,6.97
2022-10-13T15:08:02.877Z,7.83
2022-10-13T15:10:34.643Z,8.17
2022-10-13T15:13:08.311Z,8.07
2022-10-13T15:15:46.863Z,9.47
2022-10-13T15:18:18.571Z,8.93
2022-10-13T15:20:52.507Z,8.70
2022-10-13T15:23:24.235Z,9.20
2022-10-13T15:26:01.234Z,8.57
2022-10-13T15:28:38.797Z,8.03
2022-10-13T15:31:11.940Z,8.50
2022-10-13T15:33:51.805Z,9.00
2022-10-13T15:36:25.596Z,8.30
2022-10-13T15:38:57.297Z,8.53
2022-10-13T15:41:28.987Z,8.97
2022-10-13T15:44:00.709Z,10.10
2022-10-13T15:46:32.429Z,8.33
2022-10-13T15:49:04.154Z,8.27
2022-10-13T15:51:35.847Z,8.13
2022-10-13T15:54:07.575Z,8.60
2022-10-13T15:56:39.299Z,8.47
2022-10-13T15:59:11.078Z,8.37
2022-10-13T16:01:42.823Z,8.07
2022-10-13T16:04:14.522Z,8.47
2022-10-13T16:06:46.248Z,8.00
2022-10-13T16:09:17.946Z,6.93
2022-10-13T16:11:49.642Z,8.07
2022-10-13T16:14:21.361Z,6.83
2022-10-13T16:16:53.164Z,6.43
2022-10-13T16:19:24.879Z,6.87
2022-10-13T16:21:56.599Z,5.93
2022-10-13T16:24:29.055Z,6.77
2022-10-13T16:27:01.340Z,7.00
2022-10-13T16:29:34.971Z,7.67
2022-10-13T16:32:06.755Z,6.30
2022-10-13T16:34:38.558Z,6.17
2022-10-13T16:37:10.302Z,6.73
2022-10-13T16:39:44.578Z,6.53
2022-10-13T16:42:18.251Z,6.57
2022-10-13T16:44:50.023Z,6.33
2022-10-13T16:47:22.030Z,6.23
2022-10-13T16:49:54.104Z,6.53
2022-10-13T16:52:26.146Z,6.67
2022-10-13T16:54:57.865Z,6.10
2022-10-13T16:57:30.757Z,8.57
2022-10-13T17:00:02.501Z,8.20
2022-10-13T17:02:37.391Z,7.73
2022-10-13T17:05:09.464Z,8.40
2022-10-13T17:07:41.224Z,8.50
2022-10-13T17:10:13.069Z,8.73
2022-10-13T17:12:44.838Z,10.00
2022-10-13T17:15:17.800Z,10.10
2022-10-13T17:17:49.518Z,9.93
2022-10-13T17:20:21.286Z,9.80
2022-10-13T17:22:55.786Z,10.30
2022-10-13T17:25:27.523Z,10.00
2022-10-13T17:27:59.223Z,10.93
2022-10-13T17:30:30.919Z,11.90
2022-10-13T17:33:04.651Z,11.37
2022-10-13T17:35:36.459Z,10.20
2022-10-13T17:38:08.185Z,10.87
2022-10-13T17:40:39.899Z,10.57
2022-10-13T17:43:11.743Z,9.80
2022-10-13T17:45:43.642Z,11.03
2022-10-13T17:48:18.453Z,10.63
2022-10-13T17:50:52.443Z,11.47
2022-10-13T17:53:24.163Z,11.90
2022-10-13T17:56:03.486Z,11.13
2022-10-13T17:58:37.458Z,11.30
2022-10-13T18:01:13.872Z,11.87
2022-10-13T18:03:47.655Z,14.13
2022-10-13T18:06:20.238Z,12.90
2022-10-13T18:08:52.051Z,13.03
2022-10-13T18:11:24.811Z,13.53
2022-10-13T18:13:58.354Z,13.50
2022-10-13T18:16:30.062Z,12.60
2022-10-13T18:19:02.257Z,12.47
2022-10-13T18:21:33.993Z,12.17
2022-10-13T18:24:06.083Z,12.27
2022-10-13T18:26:37.980Z,12.87
2022-10-13T18:29:11.355Z,13.10
2022-10-13T18:31:43.219Z,13.60
2022-10-13T18:34:16.979Z,14.33
2022-10-13T18:36:51.207Z,13.43
2022-10-13T18:39:25.675Z,15.33
2022-10-13T18:41:57.939Z,15.67
2022-10-13T18:44:38.926Z,16.10
2022-10-13T18:47:10.639Z,16.33
2022-10-13T18:49:42.343Z,14.47
2022-10-13T18:52:14.065Z,13.97
2022-10-13T18:54:46.304Z,14.03
2022-10-13T18:57:18.213Z,13.73
2022-10-13T18:59:52.305Z,12.37
2022-10-13T19:02:31.417Z,12.80
2022-10-13T19:05:03.145Z,11.83
2022-10-13T19:07:38.908Z,12.20
2022-10-13T19:10:10.913Z,11.70
2022-10-13T19:12:42.633Z,11.87
2022-10-13T19:15:14.391Z,11.07
2022-10-13T19:17:46.115Z,12.33
2022-10-13T19:20:17.875Z,11.87
2022-10-13T19:22:49.915Z,11.17
2022-10-13T19:25:22.082Z,11.93
2022-10-13T19:27:53.962Z,12.50
2022-10-13T19:30:27.541Z,14.20
2022-10-13T19:33:00.207Z,13.27
2022-10-13T19:35:31.981Z,15.47
2022-10-13T19:38:03.692Z,13.57
2022-10-13T19:40:40.061Z,13.27
2022-10-13T19:43:13.937Z,13.40
2022-10-13T19:45:48.779Z,13.33
2022-10-13T19:48:20.507Z,14.13
2022-10-13T19:50:52.983Z,15.17
2022-10-13T19:53:24.770Z,13.93
2022-10-13T19:55:56.496Z,14.40
2022-10-13T19:58:28.341Z,14.67
2022-10-13T20:01:08.290Z,13.43
2022-10-13T20:03:40.195Z,12.97
2022-10-13T20:06:12.083Z,13.50
2022-10-13T20:08:45.032Z,13.63
2022-10-13T20:11:23.917Z,13.90
2022-10-13T20:13:56.218Z,13.13
2022-10-13T20:16:28.100Z,13.37
2022-10-13T20:19:01.241Z,15.47
2022-10-13T20:21:33.211Z,15.80
2022-10-13T20:24:05.320Z,18.20
2022-10-13T20:26:37.459Z,18.43
2022-10-13T20:29:09.297Z,20.50
2022-10-13T20:31:41.543Z,18.23
2022-10-13T20:34:13.393Z,19.20
2022-10-13T20:36:45.175Z,19.17
2022-10-13T20:39:16.986Z,18.20
2022-10-13T20:41:48.690Z,16.27
2022-10-13T20:44:20.453Z,16.17
2022-10-13T20:46:52.301Z,13.33
2022-10-13T20:49:26.583Z,14.97
2022-10-13T20:51:58.473Z,14.47
2022-10-13T20:54:30.191Z,14.30
2022-10-13T20:57:02.018Z,13.57
2022-10-13T20:59:33.896Z,12.57
2022-10-13T21:02:05.757Z,12.57
2022-10-13T21:04:37.473Z,13.30
2022-10-13T21:07:09.298Z,12.43
2022-10-13T21:09:40.997Z,12.27
2022-10-13T21:12:12.700Z,11.37
2022-10-13T21:14:44.406Z,11.40
2022-10-13T21:17:16.141Z,11.60
2022-10-13T21:19:47.825Z,10.53
2022-10-13T21:22:19.544Z,8.97
2022-10-13T21:24:51.266Z,9.00
2022-10-13T21:27:23.241Z,9.30
2022-10-13T21:29:55.180Z,9.53
2022-10-13T21:32:26.909Z,9.83
2022-10-13T21:34:58.583Z,10.07
2022-10-13T21:37:33.785Z,9.47
2022-10-13T21:40:07.202Z,10.30
2022-10-13T21:42:38.918Z,10.43
2022-10-13T21:45:11.101Z,10.77
2022-10-13T21:47:42.906Z,9.83
2022-10-13T21:50:14.697Z,10.87
2022-10-13T21:52:49.792Z,9.87
2022-10-13T21:55:22.357Z,11.07
2022-10-13T21:57:56.643Z,11.17
2022-10-13T22:00:30.287Z,11.63
2022-10-13T22:03:02.002Z,12.23
2022-10-13T22:05:35.152Z,11.90
2022-10-13T22:08:06.855Z,12.07
2022-10-13T22:10:38.590Z,10.73
2022-10-13T22:13:10.486Z,11.83
2022-10-13T22:15:42.213Z,12.17
2022-10-13T22:18:14.123Z,12.20
2022-10-13T22:20:45.935Z,12.63
2022-10-13T22:23:17.697Z,11.87
2022-10-13T22:25:49.389Z,12.47
2022-10-13T22:28:22.270Z,13.13
2022-10-13T22:30:54.104Z,34.20
2022-10-13T22:33:26.057Z,14.07
2022-10-13T22:36:00.747Z,13.57
2022-10-13T22:38:32.625Z,13.90
2022-10-13T22:41:07.975Z,12.60
2022-10-13T22:43:40.098Z,13.30
2022-10-13T22:46:20.069Z,14.20
2022-10-13T22:48:51.863Z,14.13
2022-10-13T22:51:25.296Z,14.53
2022-10-13T22:53:58.194Z,14.47
2022-10-13T22:56:32.333Z,15.17
2022-10-13T22:59:07.348Z,15.97
2022-10-13T23:01:39.236Z,15.43
2022-10-13T23:04:10.979Z,15.03
2022-10-13T23:06:42.670Z,14.20
2022-10-13T23:09:14.586Z,15.53
2022-10-13T23:11:46.425Z,15.20
2022-10-13T23:14:23.450Z,14.87
2022-10-13T23:16:55.314Z,15.60
2022-10-13T23:19:27.215Z,13.10
2022-10-13T23:21:59.082Z,15.40
2022-10-13T23:24:30.839Z,15.37
2022-10-13T23:27:02.539Z,14.80
2022-10-13T23:29:34.247Z,15.47
2022-10-13T23:32:09.586Z,14.87
2022-10-13T23:34:41.713Z,13.57
2022-10-13T23:37:15.110Z,13.30
2022-10-13T23:39:46.865Z,13.30
2022-10-13T23:42:19.771Z,14.13
2022-10-13T23:44:51.498Z,14.83
2022-10-13T23:47:23.719Z,13.87
2022-10-13T23:49:55.727Z,13.07
2022-10-13T23:52:27.740Z,14.73
2022-10-13T23:54:59.440Z,15.73
2022-10-13T23:57:33.426Z,14.07
